SWA1914 KLAX-KOAK
Flight info
| Callsign | SWA1914 |
|---|---|
| Flight time | 0h 59m |
| Altitude | 36000 |
| Route | SUMMR2 RIZIN RGOOD EMZOH4 |
| Aircraft | B737/M-SDE2E3FGHIRWXY/LB1 |
Departure
| Time | 2026-05-07 05:38 |
|---|---|
| Airport | Los Angeles International Airport (KLAX) |
Arrival
| Time | 2026-05-07 06:37 |
|---|---|
| Airport | San Francisco Bay Oakland International Airport (KOAK) |
| Time | Latitude | Longitude | Altitude | Speed | Heading |
|---|---|---|---|---|---|
| 2026-05-07 05:13 | 33.94783 | -118.40172 | 92 ft | 0 kts | 142° |
| 2026-05-07 05:29 | 33.94793 | -118.40181 | 92 ft | 3 kts | 142° |
| 2026-05-07 05:29 | 33.94809 | -118.40196 | 92 ft | 3 kts | 142° |
| 2026-05-07 05:29 | 33.94822 | -118.40210 | 92 ft | 3 kts | 111° |
| 2026-05-07 05:29 | 33.94825 | -118.40232 | 91 ft | 3 kts | 80° |
| 2026-05-07 05:30 | 33.94822 | -118.40252 | 93 ft | 2 kts | 79° |
| 2026-05-07 05:30 | 33.94820 | -118.40260 | 92 ft | 0 kts | 79° |
| 2026-05-07 05:33 | 33.94821 | -118.40258 | 92 ft | 1 kts | 79° |
| 2026-05-07 05:34 | 33.94825 | -118.40233 | 94 ft | 5 kts | 79° |
| 2026-05-07 05:34 | 33.94832 | -118.40176 | 95 ft | 9 kts | 83° |
| 2026-05-07 05:34 | 33.94840 | -118.40103 | 92 ft | 9 kts | 78° |
| 2026-05-07 05:34 | 33.94891 | -118.40080 | 94 ft | 9 kts | 3° |
| 2026-05-07 05:35 | 33.94922 | -118.40017 | 92 ft | 8 kts | 83° |
| 2026-05-07 05:35 | 33.94937 | -118.39943 | 92 ft | 9 kts | 63° |
| 2026-05-07 05:35 | 33.94951 | -118.39924 | 92 ft | 0 kts | 33° |
| 2026-05-07 05:36 | 33.94954 | -118.39922 | 93 ft | 1 kts | 32° |
| 2026-05-07 05:36 | 33.94975 | -118.39912 | 92 ft | 7 kts | 14° |
| 2026-05-07 05:36 | 33.95034 | -118.39918 | 93 ft | 8 kts | 343° |
| 2026-05-07 05:37 | 33.95041 | -118.39956 | 92 ft | 6 kts | 262° |
| 2026-05-07 05:37 | 33.95008 | -118.40259 | 97 ft | 74 kts | 264° |
| 2026-05-07 05:37 | 33.94918 | -118.41158 | 99 ft | 139 kts | 262° |
| 2026-05-07 05:37 | 33.94783 | -118.42505 | 289 ft | 175 kts | 264° |
| 2026-05-07 05:38 | 33.94685 | -118.44005 | 950 ft | 186 kts | 264° |
| 2026-05-07 05:38 | 33.94561 | -118.45552 | 1829 ft | 181 kts | 263° |
| 2026-05-07 05:38 | 33.94414 | -118.47072 | 2563 ft | 191 kts | 264° |
| 2026-05-07 05:38 | 33.94328 | -118.48781 | 2877 ft | 215 kts | 267° |
| 2026-05-07 05:39 | 33.94262 | -118.50690 | 3146 ft | 243 kts | 268° |
| 2026-05-07 05:39 | 33.94141 | -118.52766 | 3620 ft | 258 kts | 265° |
| 2026-05-07 05:39 | 33.93954 | -118.54947 | 4329 ft | 264 kts | 264° |
| 2026-05-07 05:39 | 33.93759 | -118.57162 | 5072 ft | 268 kts | 264° |
| 2026-05-07 05:40 | 33.93570 | -118.59413 | 5795 ft | 272 kts | 265° |
| 2026-05-07 05:40 | 33.93385 | -118.61692 | 6520 ft | 275 kts | 265° |
| 2026-05-07 05:40 | 33.93201 | -118.64000 | 7190 ft | 279 kts | 265° |
| 2026-05-07 05:40 | 33.93017 | -118.66340 | 7829 ft | 283 kts | 265° |
| 2026-05-07 05:41 | 33.92834 | -118.68714 | 8451 ft | 287 kts | 265° |
| 2026-05-07 05:41 | 33.92646 | -118.71126 | 9059 ft | 291 kts | 266° |
| 2026-05-07 05:41 | 33.92459 | -118.73540 | 9646 ft | 295 kts | 266° |
| 2026-05-07 05:41 | 33.92266 | -118.76022 | 10163 ft | 301 kts | 266° |
| 2026-05-07 05:42 | 33.92065 | -118.78611 | 10328 ft | 320 kts | 266° |
| 2026-05-07 05:42 | 33.91852 | -118.81349 | 10480 ft | 337 kts | 266° |
| 2026-05-07 05:42 | 33.91666 | -118.84205 | 10773 ft | 346 kts | 271° |
| 2026-05-07 05:42 | 33.91711 | -118.87109 | 11223 ft | 348 kts | 275° |
| 2026-05-07 05:43 | 33.91844 | -118.90033 | 11697 ft | 351 kts | 276° |
| 2026-05-07 05:43 | 33.91972 | -118.92982 | 12129 ft | 355 kts | 276° |
| 2026-05-07 05:43 | 33.92075 | -118.95967 | 12550 ft | 358 kts | 275° |
| 2026-05-07 05:43 | 33.92166 | -118.98972 | 13005 ft | 360 kts | 275° |
| 2026-05-07 05:44 | 33.92517 | -119.01938 | 13409 ft | 357 kts | 292° |
| 2026-05-07 05:44 | 33.93630 | -119.04571 | 13846 ft | 352 kts | 306° |
| 2026-05-07 05:44 | 33.94943 | -119.07063 | 14246 ft | 353 kts | 307° |
| 2026-05-07 05:44 | 33.96282 | -119.09557 | 14616 ft | 356 kts | 306° |
| 2026-05-07 05:45 | 33.97615 | -119.12081 | 14998 ft | 358 kts | 306° |
| 2026-05-07 05:45 | 33.98940 | -119.14632 | 15373 ft | 359 kts | 306° |
| 2026-05-07 05:45 | 34.00264 | -119.17194 | 15721 ft | 361 kts | 306° |
| 2026-05-07 05:45 | 34.01862 | -119.19490 | 16014 ft | 357 kts | 325° |
| 2026-05-07 05:46 | 34.03855 | -119.21249 | 16396 ft | 355 kts | 328° |
| 2026-05-07 05:46 | 34.05888 | -119.22959 | 16701 ft | 357 kts | 328° |
| 2026-05-07 05:46 | 34.07937 | -119.24672 | 17009 ft | 359 kts | 328° |
| 2026-05-07 05:46 | 34.09986 | -119.26396 | 17337 ft | 360 kts | 328° |
| 2026-05-07 05:47 | 34.12044 | -119.28142 | 17614 ft | 362 kts | 328° |
| 2026-05-07 05:47 | 34.14105 | -119.29903 | 17903 ft | 364 kts | 328° |
| 2026-05-07 05:47 | 34.16175 | -119.31679 | 18209 ft | 365 kts | 328° |
| 2026-05-07 05:47 | 34.18238 | -119.33455 | 18490 ft | 366 kts | 328° |
| 2026-05-07 05:48 | 34.20314 | -119.35245 | 18752 ft | 367 kts | 328° |
| 2026-05-07 05:48 | 34.22394 | -119.37040 | 19017 ft | 368 kts | 328° |
| 2026-05-07 05:48 | 34.24479 | -119.38840 | 19282 ft | 369 kts | 328° |
| 2026-05-07 05:48 | 34.26572 | -119.40647 | 19523 ft | 370 kts | 327° |
| 2026-05-07 05:49 | 34.28663 | -119.42461 | 19742 ft | 371 kts | 328° |
| 2026-05-07 05:49 | 34.30771 | -119.44277 | 19950 ft | 373 kts | 327° |
| 2026-05-07 05:49 | 34.32882 | -119.46107 | 20170 ft | 374 kts | 328° |
| 2026-05-07 05:49 | 34.35000 | -119.47954 | 20419 ft | 375 kts | 327° |
| 2026-05-07 05:50 | 34.37120 | -119.49793 | 20670 ft | 375 kts | 328° |
| 2026-05-07 05:50 | 34.39246 | -119.51637 | 20838 ft | 377 kts | 327° |
| 2026-05-07 05:50 | 34.41498 | -119.53226 | 20972 ft | 374 kts | 342° |
| 2026-05-07 05:50 | 34.44010 | -119.53981 | 21159 ft | 372 kts | 352° |
| 2026-05-07 05:51 | 34.46561 | -119.54508 | 21390 ft | 372 kts | 353° |
| 2026-05-07 05:51 | 34.49120 | -119.54998 | 21599 ft | 374 kts | 353° |
| 2026-05-07 05:51 | 34.51690 | -119.55475 | 21833 ft | 374 kts | 353° |
| 2026-05-07 05:51 | 34.54256 | -119.55973 | 21978 ft | 375 kts | 353° |
| 2026-05-07 05:52 | 34.56837 | -119.56488 | 22116 ft | 376 kts | 353° |
| 2026-05-07 05:52 | 34.59420 | -119.57008 | 22268 ft | 377 kts | 352° |
| 2026-05-07 05:52 | 34.62009 | -119.57535 | 22428 ft | 377 kts | 352° |
| 2026-05-07 05:52 | 34.64603 | -119.58066 | 22535 ft | 379 kts | 352° |
| 2026-05-07 05:53 | 34.67203 | -119.58601 | 22678 ft | 379 kts | 352° |
| 2026-05-07 05:53 | 34.69763 | -119.59128 | 22804 ft | 378 kts | 352° |
| 2026-05-07 05:53 | 34.72370 | -119.59665 | 22900 ft | 381 kts | 352° |
| 2026-05-07 05:53 | 34.74983 | -119.60205 | 23017 ft | 381 kts | 352° |
| 2026-05-07 05:54 | 34.77602 | -119.60744 | 23154 ft | 381 kts | 352° |
| 2026-05-07 05:54 | 34.80217 | -119.61284 | 23266 ft | 382 kts | 352° |
| 2026-05-07 05:54 | 34.82833 | -119.61824 | 23369 ft | 382 kts | 352° |
| 2026-05-07 05:54 | 34.85461 | -119.62366 | 23408 ft | 384 kts | 352° |
| 2026-05-07 05:55 | 34.88094 | -119.62911 | 23509 ft | 385 kts | 352° |
| 2026-05-07 05:55 | 34.90735 | -119.63458 | 23644 ft | 385 kts | 352° |
| 2026-05-07 05:55 | 34.93373 | -119.64004 | 23744 ft | 385 kts | 352° |
| 2026-05-07 05:55 | 34.96017 | -119.64553 | 23831 ft | 385 kts | 352° |
| 2026-05-07 05:56 | 34.98660 | -119.65102 | 23931 ft | 386 kts | 352° |
| 2026-05-07 05:56 | 35.01311 | -119.65652 | 24012 ft | 386 kts | 352° |
| 2026-05-07 05:56 | 35.03962 | -119.66203 | 24081 ft | 388 kts | 352° |
| 2026-05-07 05:56 | 35.06628 | -119.66756 | 24159 ft | 389 kts | 352° |
| 2026-05-07 05:57 | 35.09293 | -119.67310 | 24256 ft | 389 kts | 352° |
| 2026-05-07 05:57 | 35.11959 | -119.67865 | 24343 ft | 389 kts | 352° |
| 2026-05-07 05:57 | 35.14625 | -119.68418 | 24412 ft | 389 kts | 352° |
| 2026-05-07 05:57 | 35.17298 | -119.68975 | 24481 ft | 390 kts | 352° |
| 2026-05-07 05:58 | 35.19973 | -119.69533 | 24526 ft | 391 kts | 352° |
| 2026-05-07 05:58 | 35.22657 | -119.70092 | 24583 ft | 391 kts | 352° |
| 2026-05-07 05:58 | 35.25343 | -119.70654 | 24660 ft | 392 kts | 352° |
| 2026-05-07 05:58 | 35.28033 | -119.71217 | 24749 ft | 392 kts | 352° |
| 2026-05-07 05:59 | 35.30724 | -119.71781 | 24841 ft | 392 kts | 352° |
| 2026-05-07 05:59 | 35.33408 | -119.72344 | 24942 ft | 391 kts | 352° |
| 2026-05-07 05:59 | 35.36094 | -119.72906 | 24983 ft | 393 kts | 352° |
| 2026-05-07 05:59 | 35.38792 | -119.73471 | 25036 ft | 393 kts | 352° |
| 2026-05-07 06:00 | 35.41489 | -119.74036 | 25101 ft | 393 kts | 352° |
| 2026-05-07 06:00 | 35.44184 | -119.74601 | 25167 ft | 393 kts | 352° |
| 2026-05-07 06:00 | 35.46847 | -119.75162 | 25218 ft | 394 kts | 352° |
| 2026-05-07 06:00 | 35.49610 | -119.75742 | 25430 ft | 401 kts | 352° |
| 2026-05-07 06:01 | 35.52332 | -119.76314 | 26056 ft | 402 kts | 351° |
| 2026-05-07 06:01 | 35.55083 | -119.76894 | 26760 ft | 401 kts | 351° |
| 2026-05-07 06:01 | 35.57844 | -119.77476 | 27306 ft | 404 kts | 351° |
| 2026-05-07 06:01 | 35.60637 | -119.78064 | 27778 ft | 409 kts | 351° |
| 2026-05-07 06:02 | 35.63454 | -119.78657 | 28232 ft | 413 kts | 351° |
| 2026-05-07 06:02 | 35.66298 | -119.79257 | 28748 ft | 415 kts | 351° |
| 2026-05-07 06:02 | 35.69148 | -119.79860 | 29275 ft | 416 kts | 351° |
| 2026-05-07 06:02 | 35.72001 | -119.80463 | 29902 ft | 415 kts | 351° |
| 2026-05-07 06:03 | 35.74836 | -119.81062 | 30543 ft | 413 kts | 351° |
| 2026-05-07 06:03 | 35.77660 | -119.81661 | 31190 ft | 410 kts | 351° |
| 2026-05-07 06:03 | 35.80460 | -119.82255 | 31813 ft | 407 kts | 351° |
| 2026-05-07 06:03 | 35.83244 | -119.82845 | 32372 ft | 406 kts | 351° |
| 2026-05-07 06:04 | 35.86022 | -119.83433 | 32899 ft | 405 kts | 351° |
| 2026-05-07 06:04 | 35.88787 | -119.84051 | 33413 ft | 403 kts | 347° |
| 2026-05-07 06:04 | 35.91383 | -119.85344 | 33877 ft | 405 kts | 331° |
| 2026-05-07 06:04 | 35.93620 | -119.87470 | 34379 ft | 406 kts | 320° |
| 2026-05-07 06:05 | 35.95674 | -119.89860 | 34830 ft | 406 kts | 319° |
| 2026-05-07 06:05 | 35.97689 | -119.92299 | 35226 ft | 406 kts | 318° |
| 2026-05-07 06:05 | 35.99695 | -119.94749 | 35615 ft | 405 kts | 318° |
| 2026-05-07 06:05 | 36.01698 | -119.97183 | 36053 ft | 403 kts | 319° |
| 2026-05-07 06:06 | 36.03713 | -119.99613 | 36115 ft | 408 kts | 319° |
| 2026-05-07 06:06 | 36.07792 | -120.04491 | 36130 ft | 406 kts | 319° |
| 2026-05-07 06:07 | 36.11821 | -120.09293 | 36129 ft | 401 kts | 319° |
| 2026-05-07 06:07 | 36.15846 | -120.14088 | 36148 ft | 403 kts | 319° |
| 2026-05-07 06:08 | 36.19889 | -120.18910 | 36147 ft | 405 kts | 319° |
| 2026-05-07 06:08 | 36.23949 | -120.23762 | 36143 ft | 406 kts | 319° |
| 2026-05-07 06:08 | 36.25981 | -120.26193 | 35828 ft | 409 kts | 319° |
| 2026-05-07 06:09 | 36.28023 | -120.28639 | 35346 ft | 407 kts | 319° |
| 2026-05-07 06:09 | 36.30058 | -120.31079 | 34865 ft | 405 kts | 319° |
| 2026-05-07 06:09 | 36.32067 | -120.33490 | 34428 ft | 401 kts | 319° |
| 2026-05-07 06:09 | 36.34062 | -120.35887 | 33999 ft | 397 kts | 319° |
| 2026-05-07 06:10 | 36.36011 | -120.38228 | 33567 ft | 394 kts | 319° |
| 2026-05-07 06:10 | 36.37973 | -120.40588 | 33139 ft | 391 kts | 318° |
| 2026-05-07 06:10 | 36.39915 | -120.42925 | 32714 ft | 388 kts | 319° |
| 2026-05-07 06:10 | 36.41846 | -120.45248 | 32288 ft | 385 kts | 318° |
| 2026-05-07 06:11 | 36.43758 | -120.47551 | 31873 ft | 382 kts | 318° |
| 2026-05-07 06:11 | 36.45658 | -120.49842 | 31462 ft | 379 kts | 318° |
| 2026-05-07 06:11 | 36.47542 | -120.52116 | 31046 ft | 377 kts | 318° |
| 2026-05-07 06:11 | 36.49413 | -120.54374 | 30650 ft | 374 kts | 318° |
| 2026-05-07 06:12 | 36.51271 | -120.56618 | 30251 ft | 371 kts | 318° |
| 2026-05-07 06:12 | 36.53119 | -120.58853 | 29849 ft | 369 kts | 318° |
| 2026-05-07 06:12 | 36.54980 | -120.61047 | 29292 ft | 369 kts | 320° |
| 2026-05-07 06:12 | 36.56891 | -120.63169 | 28832 ft | 367 kts | 321° |
| 2026-05-07 06:13 | 36.58807 | -120.65258 | 28388 ft | 365 kts | 321° |
| 2026-05-07 06:13 | 36.60707 | -120.67331 | 27957 ft | 362 kts | 321° |
| 2026-05-07 06:13 | 36.62593 | -120.69398 | 27520 ft | 359 kts | 321° |
| 2026-05-07 06:13 | 36.64456 | -120.71452 | 27096 ft | 356 kts | 320° |
| 2026-05-07 06:14 | 36.66301 | -120.73493 | 26673 ft | 354 kts | 320° |
| 2026-05-07 06:14 | 36.68134 | -120.75527 | 26266 ft | 351 kts | 320° |
| 2026-05-07 06:14 | 36.69950 | -120.77545 | 25851 ft | 349 kts | 320° |
| 2026-05-07 06:14 | 36.71756 | -120.79553 | 25435 ft | 347 kts | 320° |
| 2026-05-07 06:15 | 36.73552 | -120.81549 | 25019 ft | 345 kts | 320° |
| 2026-05-07 06:15 | 36.75336 | -120.83535 | 24602 ft | 342 kts | 320° |
| 2026-05-07 06:15 | 36.77106 | -120.85505 | 24186 ft | 340 kts | 320° |
| 2026-05-07 06:15 | 36.78867 | -120.87462 | 23730 ft | 339 kts | 320° |
| 2026-05-07 06:16 | 36.80625 | -120.89410 | 23299 ft | 337 kts | 320° |
| 2026-05-07 06:16 | 36.82374 | -120.91346 | 22876 ft | 335 kts | 320° |
| 2026-05-07 06:16 | 36.84111 | -120.93269 | 22461 ft | 333 kts | 320° |
| 2026-05-07 06:16 | 36.85839 | -120.95186 | 22054 ft | 331 kts | 320° |
| 2026-05-07 06:17 | 36.87554 | -120.97089 | 21639 ft | 329 kts | 320° |
| 2026-05-07 06:17 | 36.89256 | -120.98980 | 21229 ft | 327 kts | 320° |
| 2026-05-07 06:17 | 36.90951 | -121.00864 | 20821 ft | 325 kts | 320° |
| 2026-05-07 06:17 | 36.92635 | -121.02736 | 20416 ft | 323 kts | 320° |
| 2026-05-07 06:18 | 36.94309 | -121.04598 | 20009 ft | 321 kts | 320° |
| 2026-05-07 06:18 | 36.95974 | -121.06452 | 19614 ft | 320 kts | 320° |
| 2026-05-07 06:18 | 36.97069 | -121.07673 | 19345 ft | 318 kts | 320° |
| 2026-05-07 06:18 | 36.99252 | -121.10108 | 18810 ft | 317 kts | 320° |
| 2026-05-07 06:19 | 37.00892 | -121.11936 | 18412 ft | 315 kts | 320° |
| 2026-05-07 06:19 | 37.02526 | -121.13760 | 18000 ft | 314 kts | 320° |
| 2026-05-07 06:19 | 37.04153 | -121.15577 | 17607 ft | 313 kts | 320° |
| 2026-05-07 06:19 | 37.05250 | -121.16803 | 17332 ft | 312 kts | 320° |
| 2026-05-07 06:20 | 37.06863 | -121.18608 | 16934 ft | 311 kts | 320° |
| 2026-05-07 06:20 | 37.08472 | -121.20406 | 16496 ft | 310 kts | 320° |
| 2026-05-07 06:20 | 37.10079 | -121.22205 | 15965 ft | 308 kts | 320° |
| 2026-05-07 06:20 | 37.11656 | -121.23973 | 15546 ft | 302 kts | 320° |
| 2026-05-07 06:21 | 37.13212 | -121.25718 | 15151 ft | 299 kts | 319° |
| 2026-05-07 06:21 | 37.14753 | -121.27482 | 14688 ft | 301 kts | 318° |
| 2026-05-07 06:21 | 37.16284 | -121.29259 | 14295 ft | 299 kts | 318° |
| 2026-05-07 06:21 | 37.17802 | -121.31029 | 13901 ft | 297 kts | 318° |
| 2026-05-07 06:22 | 37.19315 | -121.32794 | 13514 ft | 296 kts | 318° |
| 2026-05-07 06:22 | 37.22318 | -121.36290 | 12734 ft | 293 kts | 318° |
| 2026-05-07 06:22 | 37.23790 | -121.38004 | 12361 ft | 292 kts | 318° |
| 2026-05-07 06:23 | 37.25292 | -121.39754 | 11971 ft | 290 kts | 317° |
| 2026-05-07 06:23 | 37.26767 | -121.41474 | 11589 ft | 289 kts | 317° |
| 2026-05-07 06:23 | 37.28217 | -121.43165 | 11214 ft | 287 kts | 317° |
| 2026-05-07 06:23 | 37.29697 | -121.44892 | 10831 ft | 286 kts | 318° |
| 2026-05-07 06:24 | 37.31146 | -121.46583 | 10454 ft | 284 kts | 318° |
| 2026-05-07 06:24 | 37.32588 | -121.48269 | 10090 ft | 282 kts | 318° |
| 2026-05-07 06:24 | 37.33996 | -121.49914 | 9880 ft | 273 kts | 318° |
| 2026-05-07 06:24 | 37.35390 | -121.51543 | 9512 ft | 272 kts | 318° |
| 2026-05-07 06:25 | 37.36775 | -121.53162 | 9161 ft | 271 kts | 318° |
| 2026-05-07 06:25 | 37.38132 | -121.54743 | 8874 ft | 268 kts | 319° |
| 2026-05-07 06:25 | 37.39507 | -121.56312 | 8625 ft | 267 kts | 320° |
| 2026-05-07 06:25 | 37.40882 | -121.57877 | 8411 ft | 267 kts | 319° |
| 2026-05-07 06:26 | 37.42267 | -121.59456 | 8162 ft | 270 kts | 319° |
| 2026-05-07 06:26 | 37.43646 | -121.61034 | 7917 ft | 265 kts | 319° |
| 2026-05-07 06:26 | 37.44861 | -121.62751 | 7671 ft | 261 kts | 308° |
| 2026-05-07 06:26 | 37.45893 | -121.64603 | 7444 ft | 256 kts | 306° |
| 2026-05-07 06:27 | 37.46896 | -121.66422 | 7210 ft | 249 kts | 307° |
| 2026-05-07 06:27 | 37.47887 | -121.68187 | 7012 ft | 247 kts | 309° |
| 2026-05-07 06:27 | 37.48896 | -121.69932 | 6860 ft | 245 kts | 307° |
| 2026-05-07 06:27 | 37.49871 | -121.71671 | 6652 ft | 240 kts | 307° |
| 2026-05-07 06:28 | 37.50740 | -121.73458 | 6301 ft | 245 kts | 292° |
| 2026-05-07 06:28 | 37.51508 | -121.75353 | 6126 ft | 237 kts | 308° |
| 2026-05-07 06:28 | 37.52506 | -121.76967 | 6163 ft | 232 kts | 311° |
| 2026-05-07 06:28 | 37.53385 | -121.78680 | 6047 ft | 240 kts | 287° |
| 2026-05-07 06:29 | 37.53611 | -121.80783 | 5917 ft | 244 kts | 278° |
| 2026-05-07 06:29 | 37.53818 | -121.82910 | 5731 ft | 245 kts | 279° |
| 2026-05-07 06:29 | 37.54050 | -121.85032 | 5541 ft | 242 kts | 280° |
| 2026-05-07 06:29 | 37.54285 | -121.87102 | 5385 ft | 236 kts | 280° |
| 2026-05-07 06:30 | 37.54519 | -121.89119 | 5224 ft | 229 kts | 280° |
| 2026-05-07 06:30 | 37.54747 | -121.91078 | 5049 ft | 223 kts | 280° |
| 2026-05-07 06:30 | 37.54968 | -121.92982 | 4904 ft | 216 kts | 280° |
| 2026-05-07 06:30 | 37.55184 | -121.94832 | 4750 ft | 211 kts | 280° |
| 2026-05-07 06:31 | 37.55392 | -121.96628 | 4603 ft | 204 kts | 281° |
| 2026-05-07 06:31 | 37.55596 | -121.98379 | 4471 ft | 201 kts | 280° |
| 2026-05-07 06:31 | 37.55952 | -122.00072 | 4236 ft | 201 kts | 305° |
| 2026-05-07 06:31 | 37.56904 | -122.01312 | 4030 ft | 197 kts | 315° |
| 2026-05-07 06:32 | 37.57743 | -122.02688 | 3777 ft | 197 kts | 307° |
| 2026-05-07 06:32 | 37.58602 | -122.04040 | 3508 ft | 197 kts | 311° |
| 2026-05-07 06:32 | 37.59478 | -122.05338 | 3248 ft | 197 kts | 310° |
| 2026-05-07 06:32 | 37.60360 | -122.06658 | 3004 ft | 195 kts | 310° |
| 2026-05-07 06:33 | 37.61221 | -122.07956 | 2739 ft | 190 kts | 310° |
| 2026-05-07 06:33 | 37.62057 | -122.09217 | 2486 ft | 185 kts | 309° |
| 2026-05-07 06:33 | 37.62860 | -122.10429 | 2232 ft | 174 kts | 309° |
| 2026-05-07 06:33 | 37.63602 | -122.11550 | 1999 ft | 160 kts | 309° |
| 2026-05-07 06:34 | 37.64283 | -122.12577 | 1830 ft | 143 kts | 309° |
| 2026-05-07 06:34 | 37.64894 | -122.13499 | 1623 ft | 132 kts | 309° |
| 2026-05-07 06:34 | 37.65477 | -122.14380 | 1458 ft | 132 kts | 309° |
| 2026-05-07 06:34 | 37.66071 | -122.15276 | 1288 ft | 134 kts | 308° |
| 2026-05-07 06:35 | 37.66665 | -122.16172 | 1106 ft | 133 kts | 308° |
| 2026-05-07 06:35 | 37.67256 | -122.17062 | 927 ft | 132 kts | 308° |
| 2026-05-07 06:35 | 37.67845 | -122.17949 | 750 ft | 133 kts | 307° |
| 2026-05-07 06:35 | 37.68439 | -122.18849 | 583 ft | 134 kts | 307° |
| 2026-05-07 06:36 | 37.69037 | -122.19750 | 392 ft | 135 kts | 307° |
| 2026-05-07 06:36 | 37.69638 | -122.20649 | 218 ft | 132 kts | 307° |
| 2026-05-07 06:36 | 37.70218 | -122.21530 | 43 ft | 130 kts | 308° |
| 2026-05-07 06:36 | 37.70757 | -122.22341 | 8 ft | 103 kts | 309° |
| 2026-05-07 06:37 | 37.71077 | -122.22816 | 9 ft | 36 kts | 309° |
| 2026-05-07 06:37 | 37.71250 | -122.23040 | 9 ft | 26 kts | 326° |
| 2026-05-07 06:37 | 37.71402 | -122.23131 | 8 ft | 17 kts | 345° |
| 2026-05-07 06:37 | 37.71487 | -122.23136 | 8 ft | 11 kts | 33° |
| 2026-05-07 06:38 | 37.71483 | -122.23051 | 10 ft | 11 kts | 129° |
| 2026-05-07 06:38 | 37.71435 | -122.22978 | 9 ft | 11 kts | 131° |
| 2026-05-07 06:38 | 37.71380 | -122.22895 | 8 ft | 15 kts | 130° |
| 2026-05-07 06:38 | 37.71303 | -122.22781 | 9 ft | 19 kts | 130° |
| 2026-05-07 06:39 | 37.71223 | -122.22659 | 10 ft | 19 kts | 130° |
| 2026-05-07 06:39 | 37.71128 | -122.22519 | 8 ft | 23 kts | 130° |
| 2026-05-07 06:39 | 37.71022 | -122.22359 | 8 ft | 24 kts | 130° |
| 2026-05-07 06:39 | 37.70916 | -122.22201 | 8 ft | 23 kts | 130° |
| 2026-05-07 06:40 | 37.70818 | -122.22053 | 8 ft | 21 kts | 130° |
| 2026-05-07 06:40 | 37.70725 | -122.21914 | 8 ft | 20 kts | 130° |
| 2026-05-07 06:40 | 37.70682 | -122.21792 | 9 ft | 12 kts | 64° |
| 2026-05-07 06:40 | 37.70742 | -122.21728 | 8 ft | 11 kts | 39° |
| 2026-05-07 06:41 | 37.70809 | -122.21657 | 9 ft | 14 kts | 40° |
| 2026-05-07 06:41 | 37.70868 | -122.21542 | 8 ft | 18 kts | 85° |
| 2026-05-07 06:41 | 37.70940 | -122.21443 | 10 ft | 15 kts | 37° |
| 2026-05-07 06:41 | 37.71019 | -122.21367 | 8 ft | 10 kts | 45° |
| 2026-05-07 06:42 | 37.71009 | -122.21318 | 10 ft | 6 kts | 128° |
| 2026-05-07 06:42 | 37.70984 | -122.21277 | 9 ft | 4 kts | 128° |
| 2026-05-07 06:42 | 37.70981 | -122.21273 | 8 ft | 0 kts | 128° |
| 2026-05-07 06:42 | 37.70980 | -122.21272 | 8 ft | 0 kts | 128° |